createdAt,value
2017-08-18T00:01:06.701Z,17.20
2017-08-18T00:03:34.344Z,16.97
2017-08-18T00:06:01.955Z,16.57
2017-08-18T00:08:29.657Z,18.70
2017-08-18T00:10:57.310Z,16.20
2017-08-18T00:13:24.929Z,17.57
2017-08-18T00:15:52.568Z,15.50
2017-08-18T00:18:20.184Z,17.17
2017-08-18T00:20:47.855Z,14.97
2017-08-18T00:23:15.483Z,16.73
2017-08-18T00:25:43.092Z,16.30
2017-08-18T00:28:10.753Z,16.53
2017-08-18T00:30:38.365Z,16.33
2017-08-18T00:33:06.021Z,16.50
2017-08-18T00:35:33.665Z,15.53
2017-08-18T00:38:01.271Z,14.50
2017-08-18T00:40:29.747Z,15.53
2017-08-18T00:42:57.361Z,15.30
2017-08-18T00:45:25.096Z,16.73
2017-08-18T00:47:52.711Z,15.10
2017-08-18T00:50:20.317Z,16.53
2017-08-18T00:52:48.727Z,16.13
2017-08-18T00:55:16.349Z,15.73
2017-08-18T00:57:43.996Z,15.40
2017-08-18T01:00:11.618Z,15.33
2017-08-18T01:02:40.030Z,15.40
2017-08-18T01:05:07.681Z,16.27
2017-08-18T01:07:35.296Z,14.83
2017-08-18T01:10:02.957Z,16.53
2017-08-18T01:12:30.640Z,15.33
2017-08-18T01:14:58.284Z,16.13
2017-08-18T01:17:25.942Z,14.77
2017-08-18T01:19:53.560Z,16.00
2017-08-18T01:22:21.205Z,17.40
2017-08-18T01:24:48.847Z,17.40
2017-08-18T01:27:17.380Z,17.33
2017-08-18T01:29:45.785Z,16.50
2017-08-18T01:32:13.400Z,17.17
2017-08-18T01:34:41.080Z,15.63
2017-08-18T01:37:08.697Z,16.90
2017-08-18T01:39:36.317Z,17.53
2017-08-18T01:42:03.959Z,17.17
2017-08-18T01:44:31.571Z,15.80
2017-08-18T01:46:59.220Z,15.30
2017-08-18T01:49:26.841Z,15.03
2017-08-18T01:51:54.475Z,16.97
2017-08-18T01:54:22.112Z,15.73
2017-08-18T01:56:50.612Z,15.17
2017-08-18T01:59:18.312Z,16.53
2017-08-18T02:01:46.739Z,16.23
2017-08-18T02:04:14.362Z,15.47
2017-08-18T02:06:42.009Z,17.53
2017-08-18T02:09:09.658Z,17.77
2017-08-18T02:11:37.337Z,16.27
2017-08-18T02:14:04.953Z,16.47
2017-08-18T02:16:32.578Z,16.73
2017-08-18T02:19:00.232Z,18.63
2017-08-18T02:21:27.839Z,17.73
2017-08-18T02:23:55.494Z,17.03
2017-08-18T02:26:23.881Z,17.83
2017-08-18T02:28:51.529Z,16.40
2017-08-18T02:31:19.163Z,16.50
2017-08-18T02:33:47.549Z,16.67
2017-08-18T02:36:15.209Z,15.80
2017-08-18T02:38:42.844Z,16.03
2017-08-18T02:41:10.492Z,15.17
2017-08-18T02:43:38.170Z,17.57
2017-08-18T02:46:05.813Z,17.17
2017-08-18T02:48:33.448Z,15.40
2017-08-18T02:51:01.066Z,15.97
2017-08-18T02:53:28.759Z,17.93
2017-08-18T02:55:56.392Z,16.80
2017-08-18T02:58:24.008Z,17.93
2017-08-18T03:00:51.667Z,16.33
2017-08-18T03:03:19.305Z,17.00
2017-08-18T03:05:46.998Z,15.77
2017-08-18T03:08:14.632Z,15.77
2017-08-18T03:10:42.240Z,17.87
2017-08-18T03:13:09.944Z,15.23
2017-08-18T03:15:37.569Z,15.43
2017-08-18T03:18:05.179Z,15.87
2017-08-18T03:20:33.179Z,15.83
2017-08-18T03:23:00.852Z,15.63
2017-08-18T03:25:29.265Z,15.77
2017-08-18T03:27:56.883Z,14.40
2017-08-18T03:30:24.493Z,14.77
2017-08-18T03:32:52.131Z,16.90
2017-08-18T03:35:19.977Z,15.80
2017-08-18T03:37:47.637Z,16.33
2017-08-18T03:40:15.247Z,16.20
2017-08-18T03:42:42.869Z,14.73
2017-08-18T03:45:10.570Z,18.47
2017-08-18T03:47:38.179Z,17.10
2017-08-18T03:50:05.818Z,17.30
2017-08-18T03:52:33.447Z,17.17
2017-08-18T03:55:01.852Z,17.00
2017-08-18T03:57:29.587Z,15.90
2017-08-18T03:59:57.270Z,17.70
2017-08-18T04:02:24.919Z,14.73
2017-08-18T04:04:52.584Z,17.40
2017-08-18T04:07:21.003Z,18.87
2017-08-18T04:09:48.655Z,19.70
2017-08-18T04:12:16.306Z,18.57
2017-08-18T04:14:43.948Z,15.93
2017-08-18T04:17:11.550Z,15.83
2017-08-18T04:19:39.210Z,17.50
2017-08-18T04:22:06.911Z,18.55
2017-08-18T04:24:34.560Z,16.97
2017-08-18T04:27:02.221Z,15.87
2017-08-18T04:29:29.964Z,16.70
2017-08-18T04:31:57.576Z,17.83
2017-08-18T04:34:25.256Z,17.02
2017-08-18T04:36:52.864Z,17.07
2017-08-18T04:39:20.835Z,16.90
2017-08-18T04:41:48.452Z,16.60
2017-08-18T04:44:16.078Z,18.00
2017-08-18T04:46:43.754Z,18.60
2017-08-18T04:49:11.374Z,16.70
2017-08-18T04:51:39.094Z,17.47
2017-08-18T04:54:07.484Z,18.23
2017-08-18T04:56:35.104Z,16.50
2017-08-18T04:59:03.114Z,19.17
2017-08-18T05:01:30.873Z,17.57
2017-08-18T05:03:58.528Z,18.13
2017-08-18T05:06:26.152Z,17.77
2017-08-18T05:08:53.784Z,16.73
2017-08-18T05:11:21.427Z,17.53
2017-08-18T05:13:49.327Z,17.23
2017-08-18T05:16:16.993Z,16.00
2017-08-18T05:18:44.650Z,16.60
2017-08-18T05:21:13.036Z,16.67
2017-08-18T05:23:40.680Z,15.60
2017-08-18T05:26:08.297Z,15.43
2017-08-18T05:28:35.951Z,17.43
2017-08-18T05:31:04.356Z,15.30
2017-08-18T05:33:31.983Z,14.23
2017-08-18T05:35:59.665Z,14.10
2017-08-18T05:38:27.292Z,14.63
2017-08-18T05:40:54.987Z,14.27
2017-08-18T05:43:22.595Z,12.80
2017-08-18T05:45:50.237Z,13.03
2017-08-18T05:48:17.899Z,11.23
2017-08-18T05:50:45.508Z,12.57
2017-08-18T05:53:13.157Z,10.43
2017-08-18T05:55:40.778Z,9.83
2017-08-18T05:58:09.173Z,10.27
2017-08-18T06:00:36.821Z,9.43
2017-08-18T06:03:04.428Z,8.33
2017-08-18T06:05:32.078Z,8.90
2017-08-18T06:08:00.640Z,9.20
2017-08-18T06:10:28.287Z,8.77
2017-08-18T06:12:56.752Z,8.20
2017-08-18T06:15:24.364Z,7.90
2017-08-18T06:17:52.022Z,7.77
2017-08-18T06:20:19.704Z,7.40
2017-08-18T06:22:48.076Z,7.87
2017-08-18T06:25:16.497Z,7.00
2017-08-18T06:27:44.120Z,6.50
2017-08-18T06:30:11.788Z,5.63
2017-08-18T06:32:39.446Z,6.30
2017-08-18T06:35:07.061Z,6.60
2017-08-18T06:37:34.708Z,6.37
2017-08-18T06:40:02.350Z,6.77
2017-08-18T06:42:30.061Z,6.50
2017-08-18T06:44:58.450Z,5.53
2017-08-18T06:47:26.059Z,5.53
2017-08-18T06:49:53.709Z,5.50
2017-08-18T06:52:21.319Z,6.70
2017-08-18T06:54:49.000Z,5.40
2017-08-18T06:57:16.745Z,5.87
2017-08-18T06:59:44.383Z,5.43
2017-08-18T07:02:12.007Z,5.33
2017-08-18T07:04:39.629Z,4.90
2017-08-18T07:07:07.355Z,4.10
2017-08-18T07:09:35.734Z,6.60
2017-08-18T07:12:03.345Z,5.00
2017-08-18T07:14:31.011Z,4.77
2017-08-18T07:16:59.438Z,4.60
2017-08-18T07:19:27.076Z,4.30
2017-08-18T07:21:54.681Z,5.77
2017-08-18T07:24:22.318Z,4.40
2017-08-18T07:26:50.077Z,4.57
2017-08-18T07:29:17.703Z,4.77
2017-08-18T07:31:46.151Z,4.37
2017-08-18T07:34:13.776Z,8.10
2017-08-18T07:36:41.401Z,4.17
2017-08-18T07:39:09.279Z,3.60
2017-08-18T07:41:36.901Z,4.20
2017-08-18T07:44:04.535Z,3.57
2017-08-18T07:46:32.143Z,3.33
2017-08-18T07:48:59.799Z,3.23
2017-08-18T07:51:28.199Z,3.30
2017-08-18T07:53:55.817Z,2.83
2017-08-18T07:56:23.475Z,3.50
2017-08-18T07:58:51.089Z,4.40
2017-08-18T08:01:18.702Z,3.63
2017-08-18T08:03:46.355Z,3.40
2017-08-18T08:06:13.972Z,3.47
2017-08-18T08:08:41.621Z,7.40
2017-08-18T08:11:09.237Z,2.77
2017-08-18T08:13:37.618Z,3.00
2017-08-18T08:16:05.306Z,3.53
2017-08-18T08:18:32.913Z,3.53
2017-08-18T08:21:00.575Z,4.47
2017-08-18T08:23:28.186Z,3.07
2017-08-18T08:25:56.597Z,3.20
2017-08-18T08:28:24.235Z,3.20
2017-08-18T08:30:51.843Z,3.13
2017-08-18T08:33:19.624Z,2.77
2017-08-18T08:35:47.272Z,3.00
2017-08-18T08:38:14.886Z,3.03
2017-08-18T08:40:42.533Z,2.33
2017-08-18T08:43:10.960Z,2.80
2017-08-18T08:45:38.613Z,2.50
2017-08-18T08:48:06.227Z,2.70
2017-08-18T08:50:33.836Z,2.70
2017-08-18T08:53:02.250Z,2.07
2017-08-18T08:55:29.956Z,2.33
2017-08-18T08:57:57.607Z,2.77
2017-08-18T09:00:25.223Z,2.27
2017-08-18T09:02:53.596Z,2.30
2017-08-18T09:05:21.240Z,2.10
2017-08-18T09:07:49.657Z,2.47
2017-08-18T09:10:17.316Z,2.20
2017-08-18T09:12:44.956Z,2.27
2017-08-18T09:15:12.605Z,3.87
2017-08-18T09:17:40.266Z,2.43
2017-08-18T09:20:07.878Z,2.23
2017-08-18T09:22:35.528Z,2.13
2017-08-18T09:25:03.134Z,1.40
2017-08-18T09:27:31.524Z,2.03
2017-08-18T09:29:59.189Z,2.13
2017-08-18T09:32:26.815Z,2.53
2017-08-18T09:34:54.476Z,2.43
2017-08-18T09:37:22.076Z,2.20
2017-08-18T09:39:50.539Z,2.30
2017-08-18T09:42:18.216Z,3.20
2017-08-18T09:45:25.865Z,2.53
2017-08-18T09:48:05.367Z,1.90
2017-08-18T09:50:44.708Z,3.73
2017-08-18T09:53:24.138Z,2.50
2017-08-18T09:56:03.516Z,2.10
2017-08-18T09:58:42.840Z,2.10
2017-08-18T10:01:10.444Z,2.73
2017-08-18T10:03:38.066Z,4.37
2017-08-18T10:06:05.714Z,2.50
2017-08-18T10:08:33.338Z,2.40
2017-08-18T10:11:00.981Z,2.63
2017-08-18T10:13:28.593Z,2.30
2017-08-18T10:15:56.269Z,2.60
2017-08-18T10:18:23.931Z,2.20
2017-08-18T10:20:51.550Z,2.50
2017-08-18T10:23:19.187Z,4.13
2017-08-18T10:25:46.802Z,2.83
2017-08-18T10:28:14.425Z,2.87
2017-08-18T10:30:42.117Z,5.60
2017-08-18T10:33:10.205Z,3.40
2017-08-18T10:35:37.849Z,3.10
2017-08-18T10:38:05.476Z,3.30
2017-08-18T10:40:33.085Z,3.03
2017-08-18T10:43:00.734Z,3.23
2017-08-18T10:45:28.353Z,4.00
2017-08-18T10:47:56.054Z,3.17
2017-08-18T10:50:23.659Z,3.13
2017-08-18T10:52:51.271Z,2.90
2017-08-18T10:55:18.913Z,2.80
2017-08-18T10:57:46.745Z,2.70
2017-08-18T11:00:14.384Z,2.57
2017-08-18T11:02:41.989Z,2.80
2017-08-18T11:05:09.648Z,2.47
2017-08-18T11:07:37.281Z,2.73
2017-08-18T11:10:04.909Z,3.03
2017-08-18T11:12:32.592Z,3.03
2017-08-18T11:15:00.300Z,3.53
2017-08-18T11:17:27.913Z,3.33
2017-08-18T11:19:55.558Z,3.00
2017-08-18T11:22:23.181Z,3.37
2017-08-18T11:24:50.820Z,2.83
2017-08-18T11:27:19.656Z,2.37
2017-08-18T11:29:47.338Z,2.33
2017-08-18T11:32:14.978Z,2.50
2017-08-18T11:34:42.594Z,2.77
2017-08-18T11:37:10.297Z,2.33
2017-08-18T11:39:37.906Z,3.50
2017-08-18T11:42:05.525Z,3.00
2017-08-18T11:44:33.164Z,3.10
2017-08-18T11:47:00.774Z,3.40
2017-08-18T11:49:28.428Z,3.67
2017-08-18T11:51:56.052Z,3.20
2017-08-18T11:54:23.665Z,3.60
2017-08-18T11:56:51.308Z,3.40
2017-08-18T11:59:18.948Z,3.53
2017-08-18T12:01:46.640Z,3.57
2017-08-18T12:04:14.258Z,3.80
2017-08-18T12:06:41.860Z,4.47
2017-08-18T12:09:09.600Z,4.67
2017-08-18T12:11:37.211Z,4.67
2017-08-18T12:14:04.852Z,4.60
2017-08-18T12:16:32.474Z,6.27
2017-08-18T12:19:00.122Z,5.77
2017-08-18T12:21:27.777Z,5.40
2017-08-18T12:23:55.382Z,9.23
2017-08-18T12:26:23.048Z,6.20
2017-08-18T12:28:50.756Z,6.77
2017-08-18T12:31:18.371Z,5.87
2017-08-18T12:33:45.999Z,5.83
2017-08-18T12:36:13.596Z,5.70
2017-08-18T12:38:41.258Z,5.33
2017-08-18T12:41:08.865Z,5.80
2017-08-18T12:43:36.503Z,6.00
2017-08-18T12:46:04.137Z,6.20
2017-08-18T12:48:31.790Z,6.67
2017-08-18T12:50:59.465Z,7.80
2017-08-18T12:53:27.083Z,6.27
2017-08-18T12:55:54.717Z,8.33
2017-08-18T12:58:22.373Z,7.47
2017-08-18T13:00:49.987Z,8.13
2017-08-18T13:03:17.630Z,6.10
2017-08-18T13:05:45.238Z,7.67
2017-08-18T13:08:12.877Z,8.10
2017-08-18T13:10:40.511Z,8.50
2017-08-18T13:13:08.122Z,7.63
2017-08-18T13:15:35.785Z,9.23
2017-08-18T13:18:03.419Z,7.90
2017-08-18T13:20:31.057Z,8.47
2017-08-18T13:22:58.719Z,9.27
2017-08-18T13:25:26.361Z,9.17
2017-08-18T13:27:54.120Z,9.90
2017-08-18T13:30:21.777Z,8.87
2017-08-18T13:32:49.389Z,8.60
2017-08-18T13:35:17.087Z,10.07
2017-08-18T13:37:44.688Z,10.13
2017-08-18T13:40:12.373Z,8.73
2017-08-18T13:42:40.014Z,8.60
2017-08-18T13:45:07.619Z,7.87
2017-08-18T13:47:35.300Z,8.20
2017-08-18T13:50:02.951Z,7.83
2017-08-18T13:52:30.589Z,8.53
2017-08-18T13:54:58.194Z,7.47
2017-08-18T13:57:25.817Z,8.40
2017-08-18T13:59:53.468Z,7.40
2017-08-18T14:02:21.096Z,8.07
2017-08-18T14:04:48.757Z,7.90
2017-08-18T14:07:16.395Z,7.40
2017-08-18T14:09:44.020Z,7.30
2017-08-18T14:12:11.675Z,8.57
2017-08-18T14:14:39.315Z,7.80
2017-08-18T14:17:06.971Z,7.33
2017-08-18T14:19:34.621Z,8.43
2017-08-18T14:22:02.261Z,7.97
2017-08-18T14:24:30.045Z,8.00
2017-08-18T14:27:03.315Z,6.50
2017-08-18T14:29:30.951Z,7.40
2017-08-18T14:31:58.561Z,6.93
2017-08-18T14:34:26.201Z,7.40
2017-08-18T14:36:53.812Z,7.90
2017-08-18T14:39:21.457Z,6.87
2017-08-18T14:41:49.175Z,6.47
2017-08-18T14:44:16.786Z,7.00
2017-08-18T14:46:44.433Z,6.53
2017-08-18T14:49:12.085Z,7.00
2017-08-18T14:51:39.828Z,7.00
2017-08-18T14:54:07.493Z,6.90
2017-08-18T14:56:35.116Z,7.10
2017-08-18T14:59:02.760Z,6.33
2017-08-18T15:01:31.155Z,6.53
2017-08-18T15:03:58.777Z,6.57
2017-08-18T15:06:26.428Z,7.13
2017-08-18T15:08:54.117Z,6.40
2017-08-18T15:11:21.761Z,5.70
2017-08-18T15:13:49.638Z,6.33
2017-08-18T15:16:17.274Z,10.50
2017-08-18T15:18:44.928Z,6.40
2017-08-18T15:21:12.533Z,6.20
2017-08-18T15:23:40.183Z,5.60
2017-08-18T15:26:07.779Z,6.10
2017-08-18T15:28:35.409Z,6.50
2017-08-18T15:31:03.059Z,6.03
2017-08-18T15:33:30.716Z,5.90
2017-08-18T15:35:58.368Z,5.77
2017-08-18T15:38:25.971Z,6.90
2017-08-18T15:40:53.623Z,9.37
2017-08-18T15:43:21.327Z,6.13
2017-08-18T15:45:49.407Z,5.50
2017-08-18T15:48:17.088Z,7.33
2017-08-18T15:50:44.721Z,7.03
2017-08-18T15:53:12.344Z,10.70
2017-08-18T15:55:40.173Z,7.07
2017-08-18T15:58:07.819Z,10.17
2017-08-18T16:00:35.469Z,6.60
2017-08-18T16:03:03.076Z,7.20
2017-08-18T16:05:30.704Z,11.77
2017-08-18T16:07:58.366Z,7.40
2017-08-18T16:10:25.976Z,7.07
2017-08-18T16:12:53.630Z,6.00
2017-08-18T16:15:21.248Z,6.13
2017-08-18T16:17:48.879Z,6.73
2017-08-18T16:20:16.768Z,5.30
2017-08-18T16:22:44.421Z,6.23
2017-08-18T16:25:12.081Z,5.90
2017-08-18T16:27:39.869Z,6.10
2017-08-18T16:30:07.489Z,5.70
2017-08-18T16:32:35.141Z,6.27
2017-08-18T16:35:02.764Z,6.17
2017-08-18T16:37:30.533Z,5.43
2017-08-18T16:39:58.144Z,5.00
2017-08-18T16:42:25.764Z,5.27
2017-08-18T16:44:53.415Z,5.50
2017-08-18T16:47:21.313Z,5.53
2017-08-18T16:49:49.162Z,5.43
2017-08-18T16:52:16.776Z,5.30
2017-08-18T16:54:44.389Z,5.13
2017-08-18T16:57:12.041Z,5.20
2017-08-18T16:59:39.765Z,6.53
2017-08-18T17:02:07.412Z,5.93
2017-08-18T17:04:35.073Z,5.47
2017-08-18T17:07:02.688Z,6.80
2017-08-18T17:09:30.327Z,5.93
2017-08-18T17:11:57.939Z,5.73
2017-08-18T17:14:25.578Z,5.63
2017-08-18T17:16:53.209Z,6.03
2017-08-18T17:19:21.023Z,5.97
2017-08-18T17:21:48.689Z,6.30
2017-08-18T17:24:16.314Z,6.07
2017-08-18T17:26:43.977Z,5.70
2017-08-18T17:29:11.588Z,6.30
2017-08-18T17:31:39.220Z,5.93
2017-08-18T17:34:06.865Z,7.10
2017-08-18T17:36:34.455Z,6.47
2017-08-18T17:39:03.330Z,6.90
2017-08-18T17:41:32.390Z,7.23
2017-08-18T17:44:01.334Z,7.07
2017-08-18T17:46:29.158Z,7.20
2017-08-18T17:48:57.787Z,6.87
2017-08-18T17:51:26.129Z,6.40
2017-08-18T17:53:53.902Z,7.30
2017-08-18T17:56:22.221Z,6.73
2017-08-18T17:58:51.717Z,5.90
2017-08-18T18:01:20.289Z,7.37
2017-08-18T18:03:48.793Z,7.60
2017-08-18T18:06:17.654Z,7.00
2017-08-18T18:08:46.212Z,7.33
2017-08-18T18:11:15.342Z,7.43
2017-08-18T18:13:47.046Z,6.63
2017-08-18T18:16:15.850Z,7.43
2017-08-18T18:18:43.923Z,7.93
2017-08-18T18:21:12.423Z,7.07
2017-08-18T18:23:40.159Z,7.03
2017-08-18T18:26:07.866Z,7.17
2017-08-18T18:28:35.672Z,7.43
2017-08-18T18:31:03.847Z,6.73
2017-08-18T18:33:31.869Z,7.60
2017-08-18T18:36:00.147Z,7.30
2017-08-18T18:38:28.599Z,8.30
2017-08-18T18:40:56.463Z,7.47
2017-08-18T18:43:25.043Z,7.47
2017-08-18T18:45:53.445Z,7.93
2017-08-18T18:48:21.622Z,7.37
2017-08-18T18:50:49.254Z,7.37
2017-08-18T18:53:17.595Z,7.83
2017-08-18T18:55:45.874Z,7.53
2017-08-18T18:58:13.509Z,8.03
2017-08-18T19:00:41.178Z,8.47
2017-08-18T19:03:08.792Z,9.13
2017-08-18T19:05:36.468Z,9.33
2017-08-18T19:08:04.098Z,8.13
2017-08-18T19:10:31.718Z,8.77
2017-08-18T19:12:59.584Z,8.00
2017-08-18T19:15:27.200Z,7.40
2017-08-18T19:17:54.857Z,9.57
2017-08-18T19:20:22.491Z,8.77
2017-08-18T19:22:50.131Z,7.83
2017-08-18T19:25:17.961Z,7.87
2017-08-18T19:27:45.656Z,7.23
2017-08-18T19:30:13.316Z,8.63
2017-08-18T19:32:41.002Z,7.33
2017-08-18T19:35:08.640Z,7.70
2017-08-18T19:37:36.298Z,8.60
2017-08-18T19:40:03.919Z,9.13
2017-08-18T19:42:31.679Z,5.27
2017-08-18T19:44:59.631Z,4.80
2017-08-18T19:47:27.301Z,3.10
2017-08-18T19:49:54.972Z,2.53
2017-08-18T19:52:22.686Z,3.37
2017-08-18T19:54:50.332Z,4.90
2017-08-18T19:57:18.090Z,2.40
2017-08-18T19:59:45.709Z,4.63
2017-08-18T20:02:13.382Z,3.33
2017-08-18T20:04:41.016Z,3.03
2017-08-18T20:07:08.665Z,2.93
2017-08-18T20:09:36.308Z,4.57
2017-08-18T20:12:04.002Z,4.70
2017-08-18T20:14:31.672Z,8.57
2017-08-18T20:16:59.393Z,8.17
2017-08-18T20:19:27.050Z,5.20
2017-08-18T20:21:54.758Z,3.40
2017-08-18T20:24:22.406Z,6.17
2017-08-18T20:26:50.205Z,5.03
2017-08-18T20:29:17.870Z,4.17
2017-08-18T20:31:45.628Z,4.53
2017-08-18T20:34:13.253Z,4.70
2017-08-18T20:36:40.915Z,3.20
2017-08-18T20:39:08.562Z,3.63
2017-08-18T20:41:36.256Z,4.37
2017-08-18T20:44:03.921Z,4.70
2017-08-18T20:46:31.547Z,5.83
2017-08-18T20:48:59.176Z,4.70
2017-08-18T20:51:26.846Z,4.87
2017-08-18T20:53:54.531Z,4.03
2017-08-18T20:56:23.196Z,3.60
2017-08-18T20:58:51.078Z,3.37
2017-08-18T21:01:18.710Z,4.73
2017-08-18T21:03:46.349Z,4.00
2017-08-18T21:06:14.010Z,3.90
2017-08-18T21:08:41.659Z,3.90
2017-08-18T21:11:09.299Z,3.90
2017-08-18T21:13:37.118Z,4.53
2017-08-18T21:16:04.808Z,8.53
2017-08-18T21:18:32.430Z,6.23
2017-08-18T21:21:00.132Z,6.97
2017-08-18T21:23:27.764Z,7.60
2017-08-18T21:25:55.387Z,9.03
2017-08-18T21:28:23.040Z,6.17
2017-08-18T21:30:51.175Z,5.90
2017-08-18T21:33:18.946Z,4.50
2017-08-18T21:35:46.771Z,6.13
2017-08-18T21:38:14.486Z,7.53
2017-08-18T21:40:42.162Z,4.53
2017-08-18T21:43:09.956Z,5.10
2017-08-18T21:45:37.602Z,4.90
2017-08-18T21:48:05.489Z,4.10
2017-08-18T21:50:33.152Z,4.10
2017-08-18T21:53:00.887Z,4.10
2017-08-18T21:55:28.517Z,3.40
2017-08-18T21:57:56.233Z,2.80
2017-08-18T22:00:23.859Z,4.90
2017-08-18T22:02:51.586Z,4.13
2017-08-18T22:05:19.331Z,3.27
2017-08-18T22:07:47.060Z,5.10
2017-08-18T22:10:14.703Z,4.80
2017-08-18T22:12:42.328Z,4.13
2017-08-18T22:15:10.080Z,3.10
2017-08-18T22:17:37.833Z,4.10
2017-08-18T22:20:05.455Z,3.73
2017-08-18T22:22:33.102Z,5.20
2017-08-18T22:25:00.714Z,4.40
2017-08-18T22:27:28.426Z,4.13
2017-08-18T22:29:56.183Z,4.83
2017-08-18T22:32:23.833Z,4.40
2017-08-18T22:34:51.569Z,4.77
2017-08-18T22:37:19.192Z,3.90
2017-08-18T22:39:46.837Z,3.90
2017-08-18T22:42:14.642Z,5.07
2017-08-18T22:44:42.347Z,6.57
2017-08-18T22:47:10.120Z,5.10
2017-08-18T22:49:37.829Z,5.23
2017-08-18T22:52:05.441Z,4.60
2017-08-18T22:54:33.128Z,3.73
2017-08-18T22:57:00.797Z,4.70
2017-08-18T22:59:28.448Z,4.23
2017-08-18T23:01:56.068Z,4.77
2017-08-18T23:04:23.693Z,5.07
2017-08-18T23:06:51.330Z,4.40
2017-08-18T23:09:19.022Z,5.10
2017-08-18T23:11:46.775Z,7.13
2017-08-18T23:14:14.390Z,6.30
2017-08-18T23:16:42.000Z,4.13
2017-08-18T23:19:09.682Z,5.53
2017-08-18T23:21:37.313Z,5.17
2017-08-18T23:24:04.981Z,5.50
2017-08-18T23:26:32.593Z,4.30
2017-08-18T23:29:00.209Z,5.63
2017-08-18T23:31:27.847Z,5.60
2017-08-18T23:33:55.455Z,4.93
2017-08-18T23:36:23.104Z,4.60
2017-08-18T23:38:50.751Z,5.40
2017-08-18T23:41:18.475Z,4.43
2017-08-18T23:43:46.120Z,5.40
2017-08-18T23:46:13.737Z,4.93
2017-08-18T23:48:41.400Z,7.30
2017-08-18T23:51:09.076Z,6.85
2017-08-18T23:53:36.692Z,8.23
2017-08-18T23:56:04.352Z,5.67
2017-08-18T23:58:31.989Z,7.43
